Time;durP1;ratioP1;P1;durP2;ratioP2;P2;SDS_P1;SDS_P2;PMS_P1;PMS_P2;Temp;Humidity;BMP_temperature;BMP_pressure;BME280_temperature;BME280_humidity;BME280_pressure;Samples;Min_cycle;Max_cycle;Signal;HPM_P1;HPM_P2
2022/11/11 00:01:07;;;;;;;875.93;812.57;;;6.50;99.90;;;;;;5017247;28;20464;-83
2022/11/11 00:03:34;;;;;;;867.47;804.43;;;6.40;99.90;;;;;;5017802;28;20460;-82
2022/11/11 00:06:01;;;;;;;867.90;803.33;;;6.40;99.90;;;;;;5017328;28;20460;-81
2022/11/11 00:08:28;;;;;;;868.93;804.00;;;6.30;99.90;;;;;;5017567;28;20477;-81
2022/11/11 00:11:02;;;;;;;876.33;811.17;;;6.30;99.90;;;;;;5017333;28;20453;-82
2022/11/11 00:13:29;;;;;;;871.50;807.37;;;6.30;99.90;;;;;;5017160;28;20461;-82
2022/11/11 00:15:56;;;;;;;880.03;816.47;;;6.20;99.90;;;;;;5017509;28;20463;-82
2022/11/11 00:27:07;;;;;;;874.53;815.83;;;5.80;99.90;;;;;;5016986;28;20855;-81
2022/11/11 00:29:34;;;;;;;871.67;813.57;;;5.60;99.90;;;;;;5017008;28;20457;-81
2022/11/11 00:37:27;;;;;;;862.60;799.80;;;5.40;99.90;;;;;;5016371;28;20970;-81
2022/11/11 00:39:54;;;;;;;871.93;810.00;;;5.30;99.90;;;;;;5017226;28;20453;-81
2022/11/11 00:42:22;;;;;;;871.60;807.27;;;5.10;99.90;;;;;;5016781;28;20452;-83
2022/11/11 00:44:49;;;;;;;859.93;795.50;;;5.00;99.90;;;;;;5016892;28;20453;-82
2022/11/11 00:52:45;;;;;;;835.17;764.60;;;5.00;99.90;;;;;;5017017;28;20439;-81
2022/11/11 00:55:12;;;;;;;844.80;772.80;;;5.00;99.90;;;;;;5016418;28;20477;-82
2022/11/11 00:57:41;;;;;;;840.70;769.03;;;5.10;99.90;;;;;;5017453;28;20481;-82
2022/11/11 01:00:08;;;;;;;829.43;757.90;;;5.10;99.90;;;;;;5017170;28;20902;-81
2022/11/11 01:02:35;;;;;;;835.43;763.43;;;5.10;99.90;;;;;;5016808;28;20805;-81
2022/11/11 01:05:01;;;;;;;889.03;817.73;;;5.10;99.90;;;;;;5016982;28;20449;-81
2022/11/11 01:07:28;;;;;;;883.90;812.47;;;4.90;99.90;;;;;;5015059;28;20477;-82
2022/11/11 01:09:55;;;;;;;895.13;822.67;;;4.90;99.90;;;;;;5016519;28;20476;-81
2022/11/11 01:12:22;;;;;;;898.50;827.60;;;4.90;99.90;;;;;;5016174;28;20456;-81
2022/11/11 01:14:50;;;;;;;894.63;822.40;;;4.80;99.90;;;;;;5016347;28;20476;-83
2022/11/11 01:17:17;;;;;;;892.80;819.67;;;4.60;99.90;;;;;;5016648;28;20476;-83
2022/11/11 01:19:43;;;;;;;896.00;821.80;;;4.60;99.90;;;;;;5016350;28;20456;-81
2022/11/11 01:22:10;;;;;;;888.37;814.47;;;4.70;99.90;;;;;;5016245;28;20480;-81
2022/11/11 01:24:37;;;;;;;893.93;820.57;;;4.70;99.90;;;;;;5016022;28;20458;-81
2022/11/11 01:27:04;;;;;;;883.73;810.40;;;4.60;99.90;;;;;;5016220;28;20512;-82
2022/11/11 01:29:31;;;;;;;866.50;792.27;;;4.60;99.90;;;;;;5016186;28;20457;-81
2022/11/11 01:31:59;;;;;;;865.47;792.00;;;4.60;99.90;;;;;;5016329;28;20464;-82
2022/11/11 01:34:26;;;;;;;877.90;802.93;;;4.70;99.90;;;;;;5016007;28;20500;-83
2022/11/11 01:36:53;;;;;;;867.80;792.90;;;4.60;99.90;;;;;;5016178;28;20489;-80
2022/11/11 01:39:20;;;;;;;875.33;799.33;;;4.60;99.90;;;;;;5016023;28;20473;-83
2022/11/11 01:41:46;;;;;;;879.50;803.17;;;4.70;99.90;;;;;;5015606;28;20975;-81
2022/11/11 01:44:20;;;;;;;883.87;808.37;;;4.70;99.90;;;;;;5016444;28;20453;-81
2022/11/11 01:46:50;;;;;;;880.70;804.53;;;4.70;99.90;;;;;;5016058;28;20461;-82
2022/11/11 01:49:24;;;;;;;872.17;796.70;;;4.70;99.90;;;;;;5015825;28;21053;-82
2022/11/11 01:51:57;;;;;;;878.03;803.03;;;4.70;99.90;;;;;;5015977;28;20467;-82
2022/11/11 01:54:29;;;;;;;882.53;807.63;;;4.60;99.90;;;;;;5016045;28;20489;-82
2022/11/11 01:57:00;;;;;;;861.90;787.37;;;4.50;99.90;;;;;;5015549;28;20461;-81
2022/11/11 01:59:28;;;;;;;857.30;780.67;;;4.50;99.90;;;;;;5015869;28;20459;-81
2022/11/11 02:01:55;;;;;;;852.53;777.97;;;4.40;99.90;;;;;;5015859;28;20487;-81
2022/11/11 02:07:09;;;;;;;845.73;770.90;;;4.40;99.90;;;;;;5016002;28;21010;-81
2022/11/11 02:09:39;;;;;;;846.87;771.73;;;4.40;99.90;;;;;;5015425;28;20457;-81
2022/11/11 02:14:57;;;;;;;848.63;773.13;;;4.40;99.90;;;;;;5015981;28;20492;-81
2022/11/11 02:17:26;;;;;;;845.13;768.80;;;4.40;99.90;;;;;;5015502;28;20835;-82
2022/11/11 02:19:58;;;;;;;841.73;766.30;;;4.40;99.90;;;;;;5015703;28;20457;-81
2022/11/11 02:22:32;;;;;;;842.73;767.03;;;4.30;99.90;;;;;;5015735;28;20468;-81
2022/11/11 02:25:02;;;;;;;846.73;770.33;;;4.30;99.90;;;;;;5015454;28;20964;-81
2022/11/11 02:27:31;;;;;;;849.50;772.47;;;4.20;99.90;;;;;;5015281;28;20488;-82
2022/11/11 02:30:00;;;;;;;845.50;768.50;;;4.20;99.90;;;;;;5015379;28;20453;-81
2022/11/11 02:32:27;;;;;;;840.70;763.47;;;4.20;99.90;;;;;;5014833;28;20453;-81
2022/11/11 02:34:53;;;;;;;845.30;767.70;;;4.20;99.90;;;;;;5015418;28;20492;-81
2022/11/11 02:37:22;;;;;;;847.53;770.10;;;4.20;99.90;;;;;;5015480;28;20478;-81
2022/11/11 02:39:51;;;;;;;840.00;761.80;;;4.30;99.90;;;;;;5015676;28;20460;-80
2022/11/11 02:42:21;;;;;;;843.63;764.70;;;4.30;99.90;;;;;;5015690;28;20454;-81
2022/11/11 02:44:47;;;;;;;849.97;770.97;;;4.30;99.90;;;;;;5015275;28;20974;-82
2022/11/11 02:47:14;;;;;;;851.43;772.30;;;4.20;99.90;;;;;;5014800;28;20453;-82
2022/11/11 02:49:41;;;;;;;842.27;763.93;;;4.30;99.90;;;;;;5015205;28;20457;-81
2022/11/11 02:52:08;;;;;;;840.67;761.70;;;4.40;99.90;;;;;;5015322;28;20453;-81
2022/11/11 02:54:34;;;;;;;843.03;764.10;;;4.40;99.90;;;;;;5015135;28;20605;-82
2022/11/11 02:57:07;;;;;;;852.27;773.80;;;4.40;99.90;;;;;;5014868;28;20967;-80
2022/11/11 02:59:36;;;;;;;844.30;765.10;;;4.30;99.90;;;;;;5015176;28;20460;-80
2022/11/11 03:02:03;;;;;;;846.30;766.80;;;4.40;99.90;;;;;;5015188;28;20460;-80
2022/11/11 03:04:30;;;;;;;848.13;768.27;;;4.50;99.90;;;;;;5015872;28;20449;-81
2022/11/11 03:06:57;;;;;;;847.87;768.40;;;4.60;99.90;;;;;;5014309;28;20453;-81
2022/11/11 03:09:23;;;;;;;853.03;774.23;;;4.50;99.90;;;;;;5014968;28;20453;-80
2022/11/11 03:11:50;;;;;;;850.70;772.50;;;4.40;99.90;;;;;;5014853;28;20453;-80
2022/11/11 03:14:17;;;;;;;849.60;770.50;;;4.30;99.90;;;;;;5015448;28;20460;-81
2022/11/11 03:19:29;;;;;;;855.17;775.93;;;4.30;99.90;;;;;;5015031;28;20436;-82
2022/11/11 03:21:55;;;;;;;851.70;772.43;;;4.20;99.90;;;;;;5014540;28;20453;-81
2022/11/11 03:24:22;;;;;;;845.50;765.87;;;4.30;99.90;;;;;;5014825;28;20463;-81
2022/11/11 03:26:47;;;;;;;845.87;766.63;;;4.30;99.90;;;;;;5014934;28;20211;-81
2022/11/11 03:29:14;;;;;;;845.53;765.17;;;4.30;99.90;;;;;;5014163;28;20499;-82
2022/11/11 03:31:41;;;;;;;849.43;769.63;;;4.40;99.90;;;;;;5014945;28;20198;-81
2022/11/11 03:34:18;;;;;;;843.90;764.30;;;4.40;99.90;;;;;;5014552;28;20837;-81
2022/11/11 03:39:29;;;;;;;844.53;765.23;;;4.40;99.90;;;;;;5014866;28;20447;-81
2022/11/11 03:41:56;;;;;;;841.33;762.67;;;4.30;99.90;;;;;;5014597;28;20475;-83
2022/11/11 03:44:23;;;;;;;850.40;771.30;;;4.30;99.90;;;;;;5014239;28;20968;-81
2022/11/11 03:46:50;;;;;;;853.30;774.73;;;4.30;99.90;;;;;;5014455;28;20449;-80
2022/11/11 03:49:18;;;;;;;851.60;772.83;;;4.20;99.90;;;;;;5014698;28;20481;-81
2022/11/11 03:51:45;;;;;;;844.43;765.47;;;4.20;99.90;;;;;;5014405;28;20449;-80
2022/11/11 03:54:11;;;;;;;851.10;772.20;;;4.20;99.90;;;;;;5014500;28;20827;-81
2022/11/11 03:56:38;;;;;;;839.97;760.83;;;4.20;99.90;;;;;;5014851;28;20488;-81
2022/11/11 03:59:05;;;;;;;848.30;768.83;;;4.30;99.90;;;;;;5014785;28;20473;-80
2022/11/11 04:12:28;;;;;;;844.27;763.87;;;4.10;99.90;;;;;;5014052;28;20443;-81
2022/11/11 04:17:39;;;;;;;857.50;777.70;;;4.10;99.90;;;;;;5014548;28;20460;-81
2022/11/11 04:22:53;;;;;;;868.27;787.23;;;3.90;99.90;;;;;;5014853;28;20456;-80
2022/11/11 04:30:48;;;;;;;859.37;780.00;;;3.90;99.90;;;;;;5014425;28;20516;-81
2022/11/11 04:33:14;;;;;;;866.47;784.57;;;3.90;99.90;;;;;;5014054;28;20464;-82
2022/11/11 04:35:42;;;;;;;875.60;794.33;;;3.80;99.90;;;;;;5013999;28;20473;-81
2022/11/11 04:41:07;;;;;;;886.30;804.00;;;3.90;99.90;;;;;;5013896;28;20508;-80
2022/11/11 04:45:26;;;;;;;854.77;773.67;;;3.90;99.90;;;;;;5018052;28;20456;-81
2022/11/11 04:46:20;;;;;;;868.67;786.47;;;3.70;99.90;;;;;;5017462;28;20978;-80
2022/11/11 04:48:47;;;;;;;870.00;788.80;;;3.70;99.90;;;;;;5017560;28;20508;-80
2022/11/11 04:51:15;;;;;;;868.30;787.13;;;3.70;99.90;;;;;;5016991;28;20206;-80
2022/11/11 04:53:43;;;;;;;898.47;816.53;;;3.60;99.90;;;;;;5017403;28;20801;-80
2022/11/11 04:59:17;;;;;;;878.00;797.10;;;3.60;99.90;;;;;;4956895;29;20571;-81
2022/11/11 05:04:28;;;;;;;896.57;814.87;;;3.60;99.90;;;;;;5017194;28;20962;-80
2022/11/11 05:09:40;;;;;;;893.47;812.17;;;3.70;99.90;;;;;;5017207;28;20420;-80
2022/11/11 05:12:07;;;;;;;887.60;805.80;;;3.70;99.90;;;;;;5017542;28;20453;-81
2022/11/11 05:22:48;;;;;;;882.10;800.50;;;3.80;99.90;;;;;;5016955;28;20457;-80
2022/11/11 05:25:28;;;;;;;844.93;764.73;;;3.90;99.90;;;;;;5016176;28;20456;-80
2022/11/11 05:27:56;;;;;;;859.97;779.40;;;3.80;99.90;;;;;;5016833;28;20497;-81
2022/11/11 05:30:24;;;;;;;860.23;778.63;;;3.80;99.90;;;;;;5016447;28;20460;-79
2022/11/11 05:32:51;;;;;;;855.03;774.53;;;3.80;99.90;;;;;;5016847;28;20459;-81
2022/11/11 05:35:18;;;;;;;844.30;763.90;;;3.80;99.90;;;;;;5016768;28;20831;-80
2022/11/11 05:38:18;;;;;;;842.73;762.07;;;3.80;99.90;;;;;;5016558;28;20484;-81
2022/11/11 05:40:34;;;;;;;845.43;765.73;;;3.80;99.90;;;;;;5016299;28;20533;-82
2022/11/11 05:43:01;;;;;;;842.87;763.40;;;3.80;99.90;;;;;;5016218;28;20457;-81
2022/11/11 05:45:28;;;;;;;843.67;764.27;;;3.60;99.90;;;;;;5016631;28;20461;-81
2022/11/11 05:47:54;;;;;;;846.47;767.23;;;3.70;99.90;;;;;;5015774;28;20480;-81
2022/11/11 05:50:21;;;;;;;842.30;762.70;;;3.60;99.90;;;;;;5016334;28;20457;-82
2022/11/11 05:52:48;;;;;;;846.43;766.63;;;3.70;99.90;;;;;;5015879;28;20461;-80
2022/11/11 05:55:15;;;;;;;841.87;762.23;;;3.70;99.90;;;;;;5015912;28;20527;-80
2022/11/11 05:57:44;;;;;;;841.83;762.30;;;3.70;99.90;;;;;;5016365;28;20477;-80
2022/11/11 06:00:12;;;;;;;848.23;768.73;;;3.80;99.90;;;;;;5016150;28;20827;-80
2022/11/11 06:02:39;;;;;;;841.00;761.83;;;3.70;99.90;;;;;;5015637;28;20453;-81
2022/11/11 06:05:07;;;;;;;839.87;760.30;;;3.70;99.90;;;;;;5016360;28;20464;-83
2022/11/11 06:07:37;;;;;;;862.33;783.10;;;3.70;99.90;;;;;;5015629;28;20480;-82
2022/11/11 06:15:27;;;;;;;866.07;785.67;;;3.90;99.90;;;;;;5015067;28;20538;-81
2022/11/11 06:17:54;;;;;;;864.17;784.00;;;3.90;99.90;;;;;;5015101;28;20552;-81
2022/11/11 06:20:21;;;;;;;854.33;774.47;;;3.80;99.90;;;;;;5015167;28;20460;-82
2022/11/11 06:22:57;;;;;;;845.97;766.00;;;3.90;99.90;;;;;;5015239;28;20464;-80
2022/11/11 06:28:11;;;;;;;866.27;785.40;;;4.00;99.90;;;;;;5015005;28;20511;-80
2022/11/11 06:30:38;;;;;;;858.57;778.10;;;3.90;99.90;;;;;;5014412;28;20981;-82
2022/11/11 06:33:06;;;;;;;864.77;784.63;;;3.90;99.90;;;;;;5015606;28;20464;-80
2022/11/11 06:35:33;;;;;;;847.37;766.60;;;3.90;99.90;;;;;;5014528;28;20473;-80
2022/11/11 06:38:00;;;;;;;850.10;769.10;;;4.10;99.90;;;;;;5014202;28;20484;-81
2022/11/11 06:40:29;;;;;;;860.20;777.90;;;4.20;99.90;;;;;;5014693;28;20457;-80
2022/11/11 06:42:56;;;;;;;843.23;762.43;;;4.20;99.90;;;;;;5015211;28;20457;-82
2022/11/11 06:45:24;;;;;;;829.10;747.17;;;4.20;99.90;;;;;;5015698;28;20460;-81
2022/11/11 06:47:51;;;;;;;829.87;749.13;;;4.40;99.90;;;;;;5014756;28;20806;-80
2022/11/11 06:50:18;;;;;;;818.03;736.70;;;4.60;99.90;;;;;;5015201;28;20508;-80
2022/11/11 06:52:46;;;;;;;812.63;732.10;;;4.80;99.90;;;;;;5015402;28;20457;-81
2022/11/11 06:55:13;;;;;;;822.83;741.00;;;4.80;99.90;;;;;;5015275;28;20903;-81
2022/11/11 06:57:40;;;;;;;820.43;739.07;;;4.90;99.90;;;;;;5016135;28;20509;-81
2022/11/11 07:00:11;;;;;;;823.73;742.27;;;5.00;99.90;;;;;;5014837;28;20463;-83
2022/11/11 07:02:39;;;;;;;820.03;738.27;;;5.00;99.90;;;;;;5014740;28;20539;-82
2022/11/11 07:05:07;;;;;;;834.50;752.43;;;5.10;99.90;;;;;;5014635;28;20457;-82
2022/11/11 07:07:35;;;;;;;833.93;752.00;;;5.20;99.90;;;;;;5014564;28;20480;-82
2022/11/11 07:10:06;;;;;;;833.73;752.50;;;5.20;99.90;;;;;;5015525;28;20457;-82
2022/11/11 07:12:32;;;;;;;821.70;739.73;;;5.30;99.90;;;;;;5014962;28;20457;-82
2022/11/11 07:15:02;;;;;;;837.10;755.20;;;5.30;99.90;;;;;;5014696;28;20457;-80
2022/11/11 07:17:31;;;;;;;823.90;742.50;;;5.40;99.90;;;;;;5015737;28;20477;-83
2022/11/11 07:19:59;;;;;;;805.33;724.33;;;5.40;99.90;;;;;;5014799;28;20456;-82
2022/11/11 07:22:29;;;;;;;809.60;728.53;;;5.50;99.90;;;;;;5015020;28;20453;-82
2022/11/11 07:24:56;;;;;;;808.17;727.40;;;5.60;99.90;;;;;;5015115;28;20453;-82
2022/11/11 07:27:22;;;;;;;820.63;740.10;;;5.70;99.90;;;;;;5015454;28;20469;-82
2022/11/11 07:29:49;;;;;;;806.37;725.37;;;5.70;99.90;;;;;;5014973;28;20460;-83
2022/11/11 07:32:17;;;;;;;814.60;732.67;;;5.80;99.90;;;;;;5015079;28;20495;-82
2022/11/11 07:34:44;;;;;;;818.40;736.30;;;5.90;99.90;;;;;;5015378;28;20453;-82
2022/11/11 07:37:12;;;;;;;829.77;747.53;;;5.90;99.90;;;;;;5015103;28;20477;-82
2022/11/11 07:39:41;;;;;;;819.27;737.83;;;5.90;99.90;;;;;;5014910;28;20459;-82
2022/11/11 07:42:07;;;;;;;817.00;734.93;;;6.00;99.90;;;;;;5014839;28;20453;-83
2022/11/11 07:44:34;;;;;;;821.40;740.30;;;6.10;99.90;;;;;;5014862;28;20547;-82
2022/11/11 07:47:01;;;;;;;804.20;722.57;;;6.30;99.90;;;;;;5014409;28;20464;-82
2022/11/11 07:49:28;;;;;;;802.47;721.30;;;6.40;99.90;;;;;;5015023;28;20464;-82
2022/11/11 07:51:55;;;;;;;798.47;716.83;;;6.50;99.90;;;;;;5014058;28;20453;-82
2022/11/11 07:54:27;;;;;;;805.03;724.43;;;6.60;99.90;;;;;;5015987;28;20465;-82
2022/11/11 07:56:54;;;;;;;800.00;718.70;;;6.80;99.90;;;;;;5014637;28;20550;-84
2022/11/11 07:59:23;;;;;;;799.40;719.20;;;6.90;99.90;;;;;;5014498;28;20473;-82
2022/11/11 08:01:50;;;;;;;788.90;708.90;;;7.00;99.90;;;;;;5014353;28;20496;-82
2022/11/11 08:04:16;;;;;;;811.17;730.50;;;7.00;99.90;;;;;;5014702;28;20946;-82
2022/11/11 08:06:46;;;;;;;810.70;729.03;;;7.10;99.90;;;;;;5013721;28;20464;-82
2022/11/11 08:09:15;;;;;;;797.00;715.07;;;7.20;99.90;;;;;;5014741;28;20560;-82
2022/11/11 08:14:45;;;;;;;772.23;690.73;;;7.40;99.90;;;;;;5014578;28;20961;-82
2022/11/11 08:17:12;;;;;;;772.27;690.93;;;7.50;99.90;;;;;;5017772;28;20615;-82
2022/11/11 08:19:41;;;;;;;776.17;696.17;;;7.60;99.90;;;;;;5018546;28;20457;-82
2022/11/11 08:22:10;;;;;;;758.13;678.00;;;7.80;99.90;;;;;;5002036;28;20458;-82
2022/11/11 08:24:37;;;;;;;772.93;693.23;;;7.70;99.90;;;;;;4998106;28;20461;-82
2022/11/11 08:27:05;;;;;;;780.13;699.53;;;7.80;99.90;;;;;;4997845;28;20960;-83
2022/11/11 08:29:34;;;;;;;770.43;692.33;;;8.00;99.90;;;;;;4997737;28;20959;-82
2022/11/11 08:32:01;;;;;;;768.67;691.17;;;8.00;99.90;;;;;;4997674;28;20453;-81
2022/11/11 08:34:28;;;;;;;774.90;697.83;;;8.10;99.90;;;;;;4998037;28;20462;-82
2022/11/11 08:36:58;;;;;;;772.80;696.30;;;8.20;99.90;;;;;;4997022;28;20875;-81
2022/11/11 08:39:25;;;;;;;777.80;702.10;;;8.20;99.90;;;;;;4997819;28;20473;-82
2022/11/11 08:41:52;;;;;;;774.30;700.03;;;8.40;99.90;;;;;;4998324;28;21010;-82
2022/11/11 08:44:20;;;;;;;766.50;691.67;;;8.50;99.90;;;;;;4997887;28;20462;-82
2022/11/11 08:46:49;;;;;;;761.40;689.80;;;8.60;99.90;;;;;;4998311;28;20450;-82
2022/11/11 08:49:17;;;;;;;761.83;693.60;;;8.60;99.90;;;;;;4998363;28;20485;-82
2022/11/11 08:51:44;;;;;;;771.17;704.20;;;8.70;99.90;;;;;;4998125;28;20455;-82
2022/11/11 08:54:14;;;;;;;766.57;702.70;;;8.70;99.90;;;;;;4997720;28;20462;-82
2022/11/11 08:56:42;;;;;;;767.87;706.10;;;8.80;99.90;;;;;;4997687;28;20469;-82
2022/11/11 08:59:10;;;;;;;764.17;706.37;;;8.90;99.90;;;;;;4997558;28;20485;-82
2022/11/11 09:01:38;;;;;;;762.53;705.60;;;8.90;99.90;;;;;;4997399;28;20462;-82
2022/11/11 09:04:16;;;;;;;768.17;712.93;;;8.90;99.90;;;;;;4997551;28;20462;-82
2022/11/11 09:06:49;;;;;;;771.87;717.10;;;9.00;99.90;;;;;;4997262;28;20454;-82
2022/11/11 09:09:16;;;;;;;774.80;721.93;;;9.00;99.90;;;;;;4997258;28;20524;-82
2022/11/11 09:11:44;;;;;;;767.33;716.73;;;9.10;99.90;;;;;;4997436;28;20526;-82
2022/11/11 09:14:14;;;;;;;741.80;693.47;;;9.10;99.90;;;;;;4997952;28;20485;-82
2022/11/11 09:16:42;;;;;;;711.37;667.47;;;9.20;99.90;;;;;;4997192;28;20474;-82
2022/11/11 09:19:13;;;;;;;676.63;636.70;;;9.20;99.90;;;;;;4996594;28;20482;-81
2022/11/11 09:21:40;;;;;;;655.90;618.47;;;9.40;99.90;;;;;;4996835;28;20965;-82
2022/11/11 09:24:07;;;;;;;609.47;576.43;;;9.50;99.90;;;;;;4996907;28;20839;-82
2022/11/11 09:26:34;;;;;;;532.20;505.20;;;9.60;99.90;;;;;;4997066;28;20454;-82
2022/11/11 09:29:01;;;;;;;498.70;474.50;;;9.80;99.90;;;;;;4996403;28;20862;-83
2022/11/11 09:31:28;;;;;;;440.97;421.07;;;9.80;99.90;;;;;;4996942;28;21034;-82
2022/11/11 09:33:56;;;;;;;394.50;377.50;;;9.90;99.90;;;;;;4996885;28;20458;-82
2022/11/11 09:36:25;;;;;;;313.77;300.97;;;10.10;99.90;;;;;;4997465;28;20478;-82
2022/11/11 09:38:52;;;;;;;266.73;256.50;;;10.20;99.90;;;;;;4997307;28;20513;-83
2022/11/11 09:41:22;;;;;;;245.23;235.87;;;10.20;99.90;;;;;;4997410;28;20458;-83
2022/11/11 09:44:05;;;;;;;165.37;158.00;;;10.40;99.90;;;;;;4998843;28;20454;-83
2022/11/11 09:46:40;;;;;;;120.20;114.43;;;10.50;99.90;;;;;;4998544;28;20461;-82
2022/11/11 09:49:32;;;;;;;69.53;65.73;;;10.60;99.90;;;;;;4996577;28;20486;-82
2022/11/11 09:52:04;;;;;;;36.30;33.63;;;10.70;99.90;;;;;;4996841;28;20492;-82
2022/11/11 09:54:35;;;;;;;32.53;29.33;;;10.80;99.90;;;;;;4997582;28;20840;-82
2022/11/11 09:57:06;;;;;;;20.53;14.33;;;10.90;99.90;;;;;;4997236;28;20482;-82
2022/11/11 09:59:39;;;;;;;22.30;13.90;;;11.00;99.90;;;;;;4997473;28;20461;-82
2022/11/11 10:02:18;;;;;;;16.03;10.10;;;11.10;99.90;;;;;;4997841;28;20465;-82
2022/11/11 10:04:52;;;;;;;18.10;11.80;;;11.10;99.90;;;;;;4997701;28;20453;-82
2022/11/11 10:07:28;;;;;;;17.30;10.80;;;11.30;99.90;;;;;;4997128;28;21167;-81
2022/11/11 10:10:00;;;;;;;17.47;9.80;;;11.60;99.90;;;;;;4997156;28;20827;-83
2022/11/11 10:12:35;;;;;;;17.17;8.67;;;11.90;99.90;;;;;;4996613;28;20541;-83
2022/11/11 10:15:05;;;;;;;11.77;7.70;;;12.00;99.90;;;;;;4997913;28;20465;-83
2022/11/11 10:17:38;;;;;;;16.93;8.40;;;12.20;99.90;;;;;;4997806;28;20482;-83
2022/11/11 10:20:14;;;;;;;13.67;8.17;;;12.30;99.90;;;;;;4997522;28;20462;-84
2022/11/11 10:22:43;;;;;;;18.40;8.83;;;12.50;99.90;;;;;;4997407;28;20972;-83
2022/11/11 10:25:21;;;;;;;17.20;7.10;;;12.70;99.90;;;;;;4997822;28;20466;-83
2022/11/11 10:27:52;;;;;;;12.33;6.93;;;12.90;99.90;;;;;;4998208;28;20478;-85
2022/11/11 10:30:22;;;;;;;16.83;8.17;;;13.20;99.90;;;;;;4997888;28;21039;-83
2022/11/11 10:32:54;;;;;;;12.90;7.10;;;13.30;99.80;;;;;;4998172;28;20910;-85
2022/11/11 10:35:25;;;;;;;11.80;7.73;;;13.50;98.50;;;;;;4997837;28;20550;-85
2022/11/11 10:38:01;;;;;;;14.67;7.20;;;13.60;97.10;;;;;;4997382;28;20480;-84
2022/11/11 10:40:34;;;;;;;10.57;7.20;;;13.70;95.70;;;;;;4997228;28;20462;-84
2022/11/11 10:43:01;;;;;;;12.63;7.63;;;13.90;94.80;;;;;;4997292;28;20469;-84
2022/11/11 10:45:38;;;;;;;15.35;9.02;;;14.10;94.00;;;;;;4996896;28;21007;-84
2022/11/11 10:48:09;;;;;;;13.60;8.93;;;14.10;94.20;;;;;;4996724;28;20249;-84
2022/11/11 10:50:40;;;;;;;17.20;8.30;;;13.80;93.80;;;;;;4997610;28;20537;-85
2022/11/11 10:53:16;;;;;;;21.53;9.60;;;13.60;94.00;;;;;;4997595;28;20469;-84
2022/11/11 10:55:48;;;;;;;28.53;10.43;;;13.40;94.60;;;;;;4997743;28;20457;-84
2022/11/11 10:58:21;;;;;;;31.10;11.27;;;13.40;95.40;;;;;;4997431;28;20486;-84
2022/11/11 11:00:51;;;;;;;41.37;28.90;;;13.40;95.70;;;;;;4997744;28;20454;-82
2022/11/11 11:03:24;;;;;;;90.77;21.27;;;13.30;95.50;;;;;;4995599;28;20454;-85
2022/11/11 11:05:57;;;;;;;27.37;11.50;;;13.40;95.60;;;;;;4996734;28;21047;-84
2022/11/11 11:08:28;;;;;;;38.40;11.93;;;13.40;95.70;;;;;;4996266;28;20470;-82
2022/11/11 11:10:58;;;;;;;15.10;9.60;;;13.40;95.30;;;;;;4996209;28;20462;-85
2022/11/11 11:13:32;;;;;;;14.23;8.87;;;13.40;95.70;;;;;;4997030;28;20454;-83
2022/11/11 11:16:08;;;;;;;17.13;10.20;;;13.50;95.20;;;;;;4997292;28;20460;-85
2022/11/11 11:18:35;;;;;;;13.53;7.90;;;13.70;95.20;;;;;;4997476;28;20244;-84
2022/11/11 11:21:06;;;;;;;13.77;7.40;;;14.00;93.80;;;;;;4997605;28;20480;-84
2022/11/11 11:23:38;;;;;;;11.70;6.53;;;14.30;93.20;;;;;;4996951;28;20549;-84
2022/11/11 11:26:05;;;;;;;15.90;6.47;;;14.40;92.90;;;;;;4997286;28;20455;-85
2022/11/11 11:28:33;;;;;;;9.57;5.30;;;14.80;92.30;;;;;;4997453;28;20506;-85
2022/11/11 11:31:02;;;;;;;10.07;5.80;;;15.00;91.10;;;;;;4997480;28;20457;-84
2022/11/11 11:33:50;;;;;;;11.30;6.27;;;15.20;90.10;;;;;;4997224;28;20464;-84
2022/11/11 11:36:24;;;;;;;10.60;5.87;;;15.40;89.60;;;;;;4995363;28;20461;-85
2022/11/11 11:38:51;;;;;;;17.53;5.80;;;15.50;86.30;;;;;;4995355;28;20469;-85
2022/11/11 11:41:35;;;;;;;11.07;5.80;;;15.60;87.30;;;;;;4995587;28;20461;-85
2022/11/11 11:44:02;;;;;;;16.63;5.40;;;15.80;86.80;;;;;;4995351;28;20459;-85
2022/11/11 11:46:37;;;;;;;14.23;5.20;;;16.00;85.10;;;;;;4996231;28;20465;-83
2022/11/11 11:49:17;;;;;;;13.43;5.67;;;16.00;84.60;;;;;;4995149;28;20856;-84
2022/11/11 11:51:52;;;;;;;9.20;5.20;;;16.30;84.70;;;;;;4997593;28;20466;-84
2022/11/11 11:54:37;;;;;;;10.43;6.00;;;16.30;82.70;;;;;;4999197;28;20502;-85
2022/11/11 11:57:13;;;;;;;12.40;5.50;;;16.30;81.90;;;;;;4999061;28;20476;-84
2022/11/11 11:59:46;;;;;;;14.87;6.57;;;16.50;80.90;;;;;;4999556;28;20462;-85
2022/11/11 12:02:34;;;;;;;13.70;5.93;;;16.60;80.80;;;;;;5000150;28;20485;-85
2022/11/11 12:05:10;;;;;;;10.67;5.80;;;17.10;79.40;;;;;;4999732;28;20451;-84
2022/11/11 12:07:52;;;;;;;13.67;6.10;;;17.10;77.20;;;;;;4999570;28;20554;-84
2022/11/11 12:10:27;;;;;;;10.83;7.77;;;17.30;77.40;;;;;;4998651;28;20459;-85
2022/11/11 12:13:02;;;;;;;14.57;5.87;;;17.40;75.80;;;;;;4999082;28;20461;-85
2022/11/11 12:15:36;;;;;;;12.20;6.87;;;17.50;78.10;;;;;;4999009;28;20961;-85
2022/11/11 12:18:28;;;;;;;11.50;6.07;;;17.40;77.40;;;;;;4999381;28;20477;-85
2022/11/11 12:21:03;;;;;;;14.33;7.20;;;17.60;76.90;;;;;;4999123;28;20463;-84
2022/11/11 12:23:49;;;;;;;10.47;5.80;;;17.60;76.50;;;;;;4998793;28;20458;-84
2022/11/11 12:26:23;;;;;;;11.57;5.33;;;18.10;76.30;;;;;;4999521;28;20452;-84
2022/11/11 12:29:06;;;;;;;9.63;5.30;;;18.30;73.10;;;;;;4999244;28;20547;-84
2022/11/11 12:31:45;;;;;;;10.40;5.70;;;18.40;73.50;;;;;;4998799;28;20458;-84
2022/11/11 12:34:30;;;;;;;9.80;5.40;;;18.70;71.30;;;;;;4999017;28;20455;-85
2022/11/11 12:37:05;;;;;;;11.40;5.23;;;18.90;72.00;;;;;;4999606;28;20819;-84
2022/11/11 12:39:57;;;;;;;9.40;4.93;;;19.40;67.90;;;;;;4999226;28;20462;-85
2022/11/11 12:42:39;;;;;;;9.30;4.63;;;19.50;67.60;;;;;;4999765;28;20458;-86
2022/11/11 12:45:16;;;;;;;13.00;5.40;;;19.80;67.00;;;;;;5000305;28;20561;-85
2022/11/11 12:47:56;;;;;;;11.07;5.50;;;19.50;65.00;;;;;;5000313;28;20488;-85
2022/11/11 12:50:28;;;;;;;12.20;5.30;;;19.50;67.40;;;;;;4999879;28;20466;-85
2022/11/11 12:53:11;;;;;;;9.40;5.10;;;19.50;66.90;;;;;;5000439;28;20465;-85
2022/11/11 12:55:58;;;;;;;9.67;4.50;;;19.30;66.60;;;;;;5000163;28;20456;-85
2022/11/11 12:58:33;;;;;;;13.57;5.57;;;19.60;67.00;;;;;;4999864;28;20473;-85
2022/11/11 13:01:15;;;;;;;13.40;4.87;;;19.30;66.50;;;;;;4999663;28;20450;-85
2022/11/11 13:04:04;;;;;;;8.90;5.13;;;18.70;66.90;;;;;;4999116;28;20480;-85
2022/11/11 13:06:49;;;;;;;12.50;5.07;;;18.50;66.20;;;;;;5000404;28;20468;-85
2022/11/11 13:09:36;;;;;;;10.03;5.20;;;18.10;68.40;;;;;;5000077;28;20852;-86
2022/11/11 13:12:11;;;;;;;12.20;5.40;;;17.60;69.40;;;;;;4999510;28;20462;-84
2022/11/11 13:14:51;;;;;;;9.73;4.40;;;17.20;72.20;;;;;;4999923;28;20455;-85
2022/11/11 13:17:18;;;;;;;8.57;4.93;;;16.90;75.30;;;;;;4999984;28;20472;-85
2022/11/11 13:19:49;;;;;;;14.87;5.20;;;16.40;75.70;;;;;;4999516;28;20464;-84
2022/11/11 13:22:22;;;;;;;7.67;4.03;;;16.30;77.70;;;;;;4998845;28;20454;-84
2022/11/11 13:24:50;;;;;;;9.47;4.80;;;15.90;79.50;;;;;;4999381;28;20452;-84
2022/11/11 13:27:26;;;;;;;8.23;4.03;;;15.60;79.90;;;;;;4999958;28;20550;-85
2022/11/11 13:30:06;;;;;;;7.33;3.43;;;15.50;80.70;;;;;;5000115;28;20542;-84
2022/11/11 13:32:38;;;;;;;9.53;4.10;;;15.30;81.90;;;;;;4999603;28;20455;-85
2022/11/11 13:35:18;;;;;;;5.83;3.20;;;15.10;83.10;;;;;;4999380;28;20462;-85
2022/11/11 13:37:46;;;;;;;10.10;3.50;;;14.90;84.30;;;;;;4999285;28;20554;-85
2022/11/11 13:40:32;;;;;;;10.93;3.83;;;14.80;85.80;;;;;;4998776;28;20457;-84
2022/11/11 13:43:01;;;;;;;13.23;3.57;;;14.80;85.90;;;;;;4998982;28;20550;-84
2022/11/11 13:45:32;;;;;;;7.40;3.37;;;14.70;86.50;;;;;;4999554;28;20454;-84
2022/11/11 13:48:12;;;;;;;6.30;3.20;;;14.60;86.20;;;;;;4998483;28;20924;-84
2022/11/11 13:50:41;;;;;;;11.20;3.77;;;14.50;87.70;;;;;;4998553;28;20485;-84
2022/11/11 13:53:23;;;;;;;8.97;3.20;;;14.40;87.50;;;;;;4999246;28;20463;-84
2022/11/11 13:56:02;;;;;;;7.63;3.90;;;14.40;88.10;;;;;;4998965;28;20845;-85
2022/11/11 13:58:33;;;;;;;8.83;2.83;;;14.40;87.80;;;;;;4998656;28;20470;-84
2022/11/11 14:01:02;;;;;;;7.10;2.87;;;14.30;88.60;;;;;;4998321;28;20460;-84
2022/11/11 14:03:32;;;;;;;8.23;2.80;;;14.20;88.50;;;;;;4998874;28;20458;-85